Terminal Aerodrome Forecast
Issued by NWS

Home | Current Version | Previous Version | Text Only | Print | Product List | Glossary On
Versions: 1 2 3 4 5 6 7 8 9 10 11 12 13
000
FTUS46 KSEW 281227 AAA
TAFBLI
TAF AMD
KBLI 281227Z 2812/2912 15007KT P6SM -RA SCT025 OVC040
      TEMPO 2815/2819 5SM -RA BR OVC025
     FM282200 17008KT P6SM SCT035 BKN060
     FM290300 VRB02KT P6SM SCT060 BKN100=

USA.gov is the U.S. government's official web portal to all federal, state and local government web resources and services.